EFKK

Kruunupyy Airport

Kokkola / Kruunupyy, Finland
METAR EFKK 181620Z 18005KT 140V230 9999 SCT015 OVC018 M00/M01 Q1012
Observed Flight Rules
Dec-18 @ 16:20 UTC (28 minutes ago) Marginal Visual Flight Rules
Wind Visibility Clouds
180° at 5 knots 10,000+ meters
  • Scattered at 1,500' AGL
  • Overcast at 1,800' AGL
Temperatures Readings
Current 0°C / 32°F
Dewpoint -1°C / 30°F
Humidity 93%
Altimeter 29.88" Hg
Pressure 1012 hPa
Elevation 25
METAR EFKK 181620Z 18005KT 140V230 9999 SCT015 OVC018 M00/M01 Q1012
Observed Flight Rules
Dec-18 @ 16:20 UTC
(28 minutes ago)
MVFR
Wind Visibility
180° at 5 knots 10,000+ meters
Clouds
  • Scattered at 1,500' AGL
  • Overcast at 1,800' AGL
Temperature Dewpoint
0°C / 32°F -1°C / 30°F
Humidity Altimeter Pressure
93% 29.88" Hg 1012 hPa